createdAt,value
2023-01-09T00:01:27.545Z,24.97
2023-01-09T00:03:55.880Z,23.57
2023-01-09T00:06:24.011Z,24.67
2023-01-09T00:08:52.010Z,24.10
2023-01-09T00:11:20.498Z,23.20
2023-01-09T00:13:48.457Z,22.90
2023-01-09T00:16:17.212Z,22.87
2023-01-09T00:18:46.643Z,23.60
2023-01-09T00:21:15.328Z,24.47
2023-01-09T00:23:43.272Z,23.73
2023-01-09T00:26:13.073Z,23.13
2023-01-09T00:28:41.627Z,22.47
2023-01-09T00:31:10.616Z,22.63
2023-01-09T00:33:41.901Z,23.63
2023-01-09T00:36:12.209Z,23.33
2023-01-09T00:38:41.181Z,22.70
2023-01-09T00:41:13.478Z,23.87
2023-01-09T00:43:46.059Z,24.43
2023-01-09T00:46:16.263Z,24.10
2023-01-09T00:48:46.392Z,23.67
2023-01-09T00:51:17.373Z,23.90
2023-01-09T00:53:45.841Z,23.13
2023-01-09T00:56:17.782Z,23.07
2023-01-09T00:58:46.665Z,22.80
2023-01-09T01:01:15.112Z,23.23
2023-01-09T01:03:43.029Z,23.43
2023-01-09T01:06:28.248Z,23.67
2023-01-09T01:08:57.554Z,21.93
2023-01-09T01:11:26.212Z,23.03
2023-01-09T01:13:54.412Z,22.20
2023-01-09T01:16:22.388Z,22.27
2023-01-09T01:18:50.567Z,21.87
2023-01-09T01:21:19.253Z,22.40
2023-01-09T01:23:47.255Z,21.63
2023-01-09T01:26:17.943Z,22.43
2023-01-09T01:28:46.028Z,22.87
2023-01-09T01:31:18.617Z,22.83
2023-01-09T01:33:46.958Z,23.00
2023-01-09T01:36:17.420Z,23.37
2023-01-09T01:38:47.259Z,22.60
2023-01-09T01:41:29.321Z,22.90
2023-01-09T01:43:59.848Z,22.90
2023-01-09T01:46:28.213Z,23.27
2023-01-09T01:49:04.661Z,22.60
2023-01-09T01:51:36.105Z,22.17
2023-01-09T01:54:07.552Z,22.13
2023-01-09T01:56:41.163Z,22.53
2023-01-09T01:59:12.656Z,22.83
2023-01-09T02:01:44.070Z,23.73
2023-01-09T02:04:13.875Z,22.00
2023-01-09T02:06:42.952Z,21.90
2023-01-09T02:09:13.367Z,22.47
2023-01-09T02:11:46.738Z,23.13
2023-01-09T02:14:16.173Z,22.53
2023-01-09T02:16:56.290Z,23.10
2023-01-09T02:20:07.809Z,22.33
2023-01-09T02:22:43.540Z,21.70
2023-01-09T02:25:43.645Z,23.03
2023-01-09T02:28:37.858Z,22.17
2023-01-09T02:31:11.832Z,21.27
2023-01-09T02:33:53.375Z,22.23
2023-01-09T02:36:29.684Z,21.07
2023-01-09T02:39:16.940Z,23.03
2023-01-09T02:41:49.419Z,22.77
2023-01-09T02:44:23.554Z,22.03
2023-01-09T02:47:05.195Z,21.43
2023-01-09T02:49:34.506Z,22.47
2023-01-09T02:52:18.549Z,21.87
2023-01-09T02:54:56.907Z,24.43
2023-01-09T02:57:52.760Z,22.57
2023-01-09T03:00:29.991Z,22.00
2023-01-09T03:03:06.036Z,22.63
2023-01-09T03:05:41.260Z,23.57
2023-01-09T03:08:15.193Z,22.27
2023-01-09T03:10:51.021Z,23.93
2023-01-09T03:13:21.703Z,23.27
2023-01-09T03:15:52.031Z,22.60
2023-01-09T03:18:25.577Z,22.40
2023-01-09T03:20:55.148Z,22.67
2023-01-09T03:23:23.246Z,23.10
2023-01-09T03:25:51.187Z,22.10
2023-01-09T03:28:27.002Z,23.97
2023-01-09T03:30:55.305Z,23.23
2023-01-09T03:33:24.593Z,22.67
2023-01-09T03:35:52.552Z,23.20
2023-01-09T03:38:20.465Z,23.10
2023-01-09T03:40:48.423Z,23.37
2023-01-09T03:43:16.382Z,22.60
2023-01-09T03:45:44.767Z,23.63
2023-01-09T03:48:12.734Z,22.37
2023-01-09T03:50:42.514Z,22.67
2023-01-09T03:53:10.512Z,22.77
2023-01-09T03:55:38.479Z,23.10
2023-01-09T03:58:06.459Z,22.77
2023-01-09T04:00:34.403Z,21.37
2023-01-09T04:03:02.347Z,21.83
2023-01-09T04:05:30.264Z,21.63
2023-01-09T04:07:59.571Z,20.97
2023-01-09T04:10:27.485Z,21.30
2023-01-09T04:12:55.419Z,22.30
2023-01-09T04:15:23.932Z,22.03
2023-01-09T04:17:51.908Z,22.33
2023-01-09T04:20:20.148Z,19.73
2023-01-09T04:22:48.072Z,21.03
2023-01-09T04:25:17.420Z,20.73
2023-01-09T04:27:45.314Z,21.60
2023-01-09T04:30:13.865Z,21.00
2023-01-09T04:32:41.781Z,21.70
2023-01-09T04:35:10.573Z,20.67
2023-01-09T04:37:40.385Z,20.13
2023-01-09T04:40:10.424Z,20.30
2023-01-09T04:42:40.049Z,20.97
2023-01-09T04:45:10.764Z,20.80
2023-01-09T04:47:39.162Z,21.00
2023-01-09T04:50:07.621Z,21.80
2023-01-09T04:52:37.092Z,20.90
2023-01-09T04:55:08.141Z,21.57
2023-01-09T04:57:36.725Z,22.17
2023-01-09T05:00:09.722Z,22.00
2023-01-09T05:02:37.834Z,21.47
2023-01-09T05:05:09.698Z,20.83
2023-01-09T05:07:39.229Z,20.83
2023-01-09T05:10:08.803Z,20.80
2023-01-09T05:12:36.937Z,21.43
2023-01-09T05:15:07.892Z,19.87
2023-01-09T05:17:36.209Z,22.30
2023-01-09T05:20:04.423Z,21.20
2023-01-09T05:22:32.473Z,20.63
2023-01-09T05:25:00.686Z,21.97
2023-01-09T05:27:30.349Z,21.60
2023-01-09T05:29:58.305Z,21.17
2023-01-09T05:32:27.597Z,21.87
2023-01-09T05:34:55.570Z,20.33
2023-01-09T05:37:23.476Z,20.03
2023-01-09T05:39:51.424Z,20.30
2023-01-09T05:42:19.332Z,20.27
2023-01-09T05:44:47.292Z,19.67
2023-01-09T05:47:15.271Z,19.43
2023-01-09T05:49:44.676Z,20.03
2023-01-09T05:52:12.590Z,20.07
2023-01-09T05:54:40.491Z,19.60
2023-01-09T05:57:08.416Z,20.43
2023-01-09T05:59:36.315Z,19.30
2023-01-09T06:02:04.479Z,19.93
2023-01-09T06:04:32.444Z,20.87
2023-01-09T06:07:01.824Z,21.23
2023-01-09T06:09:30.715Z,21.03
2023-01-09T06:11:58.781Z,20.73
2023-01-09T06:14:26.697Z,21.30
2023-01-09T06:16:54.653Z,21.07
2023-01-09T06:19:22.702Z,20.90
2023-01-09T06:21:50.601Z,19.70
2023-01-09T06:24:19.944Z,21.63
2023-01-09T06:26:47.842Z,20.03
2023-01-09T06:29:16.365Z,21.53
2023-01-09T06:31:44.291Z,20.73
2023-01-09T06:34:12.878Z,20.77
2023-01-09T06:36:41.045Z,20.63
2023-01-09T06:39:09.020Z,20.53
2023-01-09T06:41:38.460Z,19.60
2023-01-09T06:44:06.426Z,20.43
2023-01-09T06:46:34.471Z,20.67
2023-01-09T06:49:02.609Z,21.50
2023-01-09T06:51:31.002Z,20.93
2023-01-09T06:53:59.046Z,21.53
2023-01-09T06:56:27.112Z,19.17
2023-01-09T06:58:56.684Z,20.17
2023-01-09T07:01:24.686Z,20.80
2023-01-09T07:03:52.766Z,20.20
2023-01-09T07:06:20.831Z,20.23
2023-01-09T07:08:48.768Z,18.97
2023-01-09T07:11:16.730Z,19.43
2023-01-09T07:13:45.041Z,19.43
2023-01-09T07:16:19.170Z,19.37
2023-01-09T07:18:47.771Z,18.17
2023-01-09T07:21:15.812Z,18.40
2023-01-09T07:23:43.753Z,18.53
2023-01-09T07:26:11.650Z,18.60
2023-01-09T07:28:39.609Z,18.77
2023-01-09T07:31:07.834Z,19.07
2023-01-09T07:33:37.202Z,19.40
2023-01-09T07:36:05.591Z,18.57
2023-01-09T07:38:33.536Z,17.83
2023-01-09T07:41:01.692Z,17.80
2023-01-09T07:43:29.686Z,18.57
2023-01-09T07:45:57.688Z,18.63
2023-01-09T07:48:26.070Z,17.80
2023-01-09T07:50:55.367Z,18.30
2023-01-09T07:53:23.283Z,18.80
2023-01-09T07:55:51.224Z,18.73
2023-01-09T07:58:19.113Z,18.30
2023-01-09T08:00:47.061Z,18.73
2023-01-09T08:03:15.006Z,18.30
2023-01-09T08:05:42.999Z,19.17
2023-01-09T08:08:13.674Z,18.10
2023-01-09T08:10:41.673Z,19.03
2023-01-09T08:13:09.659Z,18.03
2023-01-09T08:15:37.718Z,18.90
2023-01-09T08:18:05.872Z,17.47
2023-01-09T08:20:33.934Z,18.97
2023-01-09T08:23:01.909Z,18.60
2023-01-09T08:25:31.244Z,19.07
2023-01-09T08:27:59.148Z,17.83
2023-01-09T08:30:27.163Z,17.77
2023-01-09T08:32:55.585Z,18.17
2023-01-09T08:35:23.589Z,18.37
2023-01-09T08:37:51.527Z,17.83
2023-01-09T08:40:19.983Z,18.47
2023-01-09T08:43:06.703Z,18.37
2023-01-09T08:46:04.201Z,18.70
2023-01-09T08:48:32.218Z,17.73
2023-01-09T08:51:00.169Z,18.67
2023-01-09T08:53:28.484Z,19.57
2023-01-09T08:55:56.398Z,19.17
2023-01-09T08:58:25.619Z,18.70
2023-01-09T09:00:53.661Z,17.47
2023-01-09T09:03:21.780Z,17.17
2023-01-09T09:05:50.948Z,18.37
2023-01-09T09:08:20.218Z,18.50
2023-01-09T09:10:48.192Z,17.27
2023-01-09T09:13:16.165Z,16.83
2023-01-09T09:15:45.456Z,17.13
2023-01-09T09:18:13.374Z,18.03
2023-01-09T09:20:41.424Z,16.63
2023-01-09T09:23:09.537Z,16.13
2023-01-09T09:25:38.464Z,16.20
2023-01-09T09:28:07.067Z,17.20
2023-01-09T09:30:35.239Z,16.73
2023-01-09T09:33:05.933Z,15.80
2023-01-09T09:35:34.764Z,18.00
2023-01-09T09:38:05.651Z,16.30
2023-01-09T09:40:52.399Z,17.50
2023-01-09T09:44:07.957Z,17.83
2023-01-09T09:46:43.553Z,17.40
2023-01-09T09:49:17.436Z,17.40
2023-01-09T09:51:57.389Z,16.67
2023-01-09T09:54:31.664Z,17.07
2023-01-09T09:57:03.266Z,17.83
2023-01-09T09:59:34.341Z,17.67
2023-01-09T10:02:05.935Z,18.33
2023-01-09T10:04:37.933Z,16.63
2023-01-09T10:07:09.758Z,17.87
2023-01-09T10:09:48.357Z,18.33
2023-01-09T10:12:28.185Z,18.00
2023-01-09T10:14:58.443Z,16.80
2023-01-09T10:17:44.420Z,17.63
2023-01-09T10:20:45.764Z,16.97
2023-01-09T10:23:28.202Z,16.53
2023-01-09T10:26:02.665Z,16.03
2023-01-09T10:28:55.550Z,16.37
2023-01-09T10:31:34.369Z,16.47
2023-01-09T10:34:15.510Z,17.83
2023-01-09T10:36:59.206Z,15.97
2023-01-09T10:39:34.458Z,16.93
2023-01-09T10:42:12.223Z,15.70
2023-01-09T10:44:47.085Z,16.77
2023-01-09T10:47:19.329Z,17.97
2023-01-09T10:49:50.257Z,17.47
2023-01-09T10:52:20.942Z,15.63
2023-01-09T10:54:56.000Z,15.17
2023-01-09T10:57:42.695Z,15.90
2023-01-09T11:00:18.342Z,17.07
2023-01-09T11:02:47.054Z,17.33
2023-01-09T11:05:20.031Z,18.03
2023-01-09T11:07:54.339Z,16.83
2023-01-09T11:10:25.349Z,16.90
2023-01-09T11:13:15.044Z,16.57
2023-01-09T11:15:43.114Z,18.77
2023-01-09T11:18:19.442Z,16.70
2023-01-09T11:20:47.438Z,19.70
2023-01-09T11:23:31.690Z,18.17
2023-01-09T11:26:02.628Z,16.97
2023-01-09T11:28:31.189Z,17.43
2023-01-09T11:31:01.277Z,18.57
2023-01-09T11:33:31.600Z,17.97
2023-01-09T11:36:08.043Z,19.40
2023-01-09T11:38:50.598Z,18.10
2023-01-09T11:41:22.068Z,18.17
2023-01-09T11:43:52.590Z,16.93
2023-01-09T11:46:38.564Z,18.30
2023-01-09T11:49:22.842Z,18.07
2023-01-09T11:52:15.239Z,17.57
2023-01-09T11:54:49.519Z,18.07
2023-01-09T11:57:17.818Z,19.87
2023-01-09T11:59:45.780Z,19.47
2023-01-09T12:02:33.850Z,19.17
2023-01-09T12:05:09.958Z,19.60
2023-01-09T12:08:07.543Z,18.30
2023-01-09T12:10:49.961Z,18.60
2023-01-09T12:13:32.371Z,20.43
2023-01-09T12:16:08.980Z,21.67
2023-01-09T12:18:53.285Z,20.27
2023-01-09T12:21:34.523Z,21.00
2023-01-09T12:24:21.026Z,19.27
2023-01-09T12:27:00.453Z,19.87
2023-01-09T12:29:46.307Z,20.87
2023-01-09T12:32:23.435Z,20.40
2023-01-09T12:35:01.326Z,21.40
2023-01-09T12:38:02.446Z,20.97
2023-01-09T12:40:50.957Z,20.10
2023-01-09T12:43:30.573Z,21.77
2023-01-09T12:46:08.473Z,21.63
2023-01-09T12:49:00.860Z,20.97
2023-01-09T12:51:33.628Z,20.97
2023-01-09T12:54:06.916Z,20.30
2023-01-09T12:56:38.882Z,21.50
2023-01-09T12:59:30.058Z,22.40
2023-01-09T13:02:07.797Z,21.00
2023-01-09T13:04:39.966Z,20.83
2023-01-09T13:07:18.977Z,22.67
2023-01-09T13:09:51.358Z,22.13
2023-01-09T13:12:22.314Z,21.30
2023-01-09T13:14:55.877Z,20.70
2023-01-09T13:17:28.791Z,21.00
2023-01-09T13:19:56.748Z,23.37
2023-01-09T13:22:27.119Z,19.87
2023-01-09T13:25:14.440Z,20.50
2023-01-09T13:27:46.277Z,23.50
2023-01-09T13:30:25.639Z,21.20
2023-01-09T13:33:04.161Z,23.47
2023-01-09T13:35:32.089Z,22.03
2023-01-09T13:38:00.111Z,24.20
2023-01-09T13:40:30.554Z,23.83
2023-01-09T13:43:02.083Z,23.97
2023-01-09T13:45:33.822Z,25.97
2023-01-09T13:48:29.453Z,26.20
2023-01-09T13:51:31.107Z,26.80
2023-01-09T13:53:59.205Z,25.60
2023-01-09T13:56:27.631Z,28.47
2023-01-09T13:59:02.729Z,25.17
2023-01-09T14:01:47.521Z,25.20
2023-01-09T14:04:45.204Z,24.80
2023-01-09T14:07:24.674Z,24.30
2023-01-09T14:09:58.346Z,23.83
2023-01-09T14:12:27.570Z,26.73
2023-01-09T14:14:58.622Z,23.73
2023-01-09T14:17:35.456Z,24.47
2023-01-09T14:20:07.767Z,24.20
2023-01-09T14:22:45.800Z,24.13
2023-01-09T14:25:27.122Z,24.27
2023-01-09T14:28:11.613Z,26.67
2023-01-09T14:31:00.775Z,24.03
2023-01-09T14:33:32.606Z,24.20
2023-01-09T14:36:15.995Z,26.43
2023-01-09T14:38:46.549Z,25.23
2023-01-09T14:41:45.828Z,25.97
2023-01-09T14:44:28.360Z,27.97
2023-01-09T14:47:00.336Z,26.60
2023-01-09T14:49:35.353Z,29.00
2023-01-09T14:52:09.136Z,24.60
2023-01-09T14:54:41.322Z,25.20
2023-01-09T14:57:25.372Z,24.37
2023-01-09T14:59:57.868Z,25.27
2023-01-09T15:02:28.603Z,25.37
2023-01-09T15:05:01.563Z,23.10
2023-01-09T15:07:34.743Z,23.57
2023-01-09T15:10:04.407Z,25.10
2023-01-09T15:12:33.165Z,23.83
2023-01-09T15:15:03.297Z,24.63
2023-01-09T15:17:34.891Z,25.03
2023-01-09T15:20:07.455Z,24.57
2023-01-09T15:22:37.487Z,31.60
2023-01-09T15:25:33.634Z,51.37
2023-01-09T15:28:20.936Z,43.17
2023-01-09T15:30:57.573Z,31.37
2023-01-09T15:33:25.939Z,26.83
2023-01-09T15:36:00.368Z,22.63
2023-01-09T15:38:30.614Z,22.93
2023-01-09T15:41:00.709Z,23.93
2023-01-09T15:43:31.008Z,23.40
2023-01-09T15:45:59.438Z,24.13
2023-01-09T15:48:30.604Z,23.50
2023-01-09T15:51:04.139Z,23.37
2023-01-09T15:53:32.601Z,23.43
2023-01-09T15:56:24.017Z,24.53
2023-01-09T15:58:53.296Z,23.13
2023-01-09T16:01:28.632Z,24.60
2023-01-09T16:03:59.686Z,23.23
2023-01-09T16:06:30.679Z,24.23
2023-01-09T16:09:00.437Z,24.13
2023-01-09T16:11:31.244Z,22.90
2023-01-09T16:14:10.910Z,23.63
2023-01-09T16:16:39.332Z,24.27
2023-01-09T16:19:27.511Z,24.33
2023-01-09T16:22:00.488Z,23.33
2023-01-09T16:24:29.680Z,24.50
2023-01-09T16:27:24.095Z,25.23
2023-01-09T16:29:57.533Z,24.83
2023-01-09T16:32:29.428Z,23.87
2023-01-09T16:34:58.721Z,23.90
2023-01-09T16:37:28.959Z,24.83
2023-01-09T16:40:25.622Z,24.33
2023-01-09T16:43:02.000Z,24.00
2023-01-09T16:45:32.720Z,24.73
2023-01-09T16:48:01.355Z,25.50
2023-01-09T16:50:29.815Z,23.90
2023-01-09T16:53:03.556Z,24.23
2023-01-09T16:55:32.179Z,24.50
2023-01-09T16:58:00.157Z,25.40
2023-01-09T17:00:28.223Z,25.57
2023-01-09T17:02:57.224Z,24.60
2023-01-09T17:05:25.276Z,24.93
2023-01-09T17:07:53.308Z,24.47
2023-01-09T17:10:23.720Z,23.37
2023-01-09T17:12:51.682Z,24.87
2023-01-09T17:15:19.646Z,26.43
2023-01-09T17:17:47.556Z,26.47
2023-01-09T17:20:17.531Z,26.27
2023-01-09T17:22:45.492Z,25.43
2023-01-09T17:25:34.910Z,26.17
2023-01-09T17:28:36.126Z,24.40
2023-01-09T17:31:06.701Z,25.57
2023-01-09T17:33:35.218Z,29.47
2023-01-09T17:36:03.998Z,29.07
2023-01-09T17:38:31.946Z,28.37
2023-01-09T17:41:00.002Z,28.03
2023-01-09T17:43:29.333Z,27.73
2023-01-09T17:45:58.717Z,28.80
2023-01-09T17:48:26.872Z,28.63
2023-01-09T17:50:54.847Z,30.57
2023-01-09T17:53:24.765Z,30.40
2023-01-09T17:55:52.821Z,29.77
2023-01-09T17:58:26.791Z,30.50
2023-01-09T18:00:56.088Z,30.27
2023-01-09T18:03:25.955Z,31.23
2023-01-09T18:05:54.186Z,29.97
2023-01-09T18:08:22.061Z,30.77
2023-01-09T18:10:50.646Z,30.50
2023-01-09T18:13:18.871Z,31.93
2023-01-09T18:15:47.546Z,31.77
2023-01-09T18:18:17.130Z,30.23
2023-01-09T18:20:46.229Z,31.03
2023-01-09T18:23:14.417Z,33.20
2023-01-09T18:25:43.196Z,34.63
2023-01-09T18:28:16.666Z,34.57
2023-01-09T18:30:47.884Z,32.87
2023-01-09T18:33:18.463Z,33.30
2023-01-09T18:35:46.739Z,33.00
2023-01-09T18:38:15.562Z,33.10
2023-01-09T18:40:43.489Z,33.43
2023-01-09T18:43:12.167Z,33.77
2023-01-09T18:45:40.457Z,33.03
2023-01-09T18:48:09.517Z,34.27
2023-01-09T18:50:38.835Z,34.40
2023-01-09T18:53:07.418Z,35.57
2023-01-09T18:55:37.682Z,32.27
2023-01-09T18:58:06.392Z,32.33
2023-01-09T19:00:34.795Z,31.83
2023-01-09T19:03:02.731Z,33.27
2023-01-09T19:05:32.686Z,31.70
2023-01-09T19:08:02.097Z,31.10
2023-01-09T19:10:30.207Z,33.53
2023-01-09T19:12:58.155Z,33.37
2023-01-09T19:15:26.831Z,34.13
2023-01-09T19:17:55.545Z,33.27
2023-01-09T19:20:23.470Z,31.93
2023-01-09T19:22:51.518Z,30.37
2023-01-09T19:25:21.355Z,28.40
2023-01-09T19:27:49.316Z,29.60
2023-01-09T19:30:17.986Z,28.23
2023-01-09T19:32:46.260Z,28.50
2023-01-09T19:35:14.401Z,28.80
2023-01-09T19:37:42.340Z,28.60
2023-01-09T19:40:11.742Z,28.80
2023-01-09T19:42:41.396Z,28.50
2023-01-09T19:45:10.229Z,28.20
2023-01-09T19:47:38.275Z,28.03
2023-01-09T19:50:08.363Z,29.17
2023-01-09T19:52:37.441Z,29.13
2023-01-09T19:55:05.928Z,29.33
2023-01-09T19:57:33.945Z,28.47
2023-01-09T20:00:03.354Z,29.60
2023-01-09T20:02:40.595Z,29.13
2023-01-09T20:05:09.386Z,29.80
2023-01-09T20:07:37.592Z,30.10
2023-01-09T20:10:06.371Z,30.63
2023-01-09T20:12:34.281Z,31.57
2023-01-09T20:15:04.257Z,31.70
2023-01-09T20:17:34.109Z,30.80
2023-01-09T20:20:02.057Z,33.60
2023-01-09T20:22:30.023Z,32.60
2023-01-09T20:24:58.180Z,31.80
2023-01-09T20:27:26.203Z,34.53
2023-01-09T20:29:54.119Z,33.43
2023-01-09T20:32:23.418Z,33.73
2023-01-09T20:34:51.419Z,32.60
2023-01-09T20:37:19.373Z,35.17
2023-01-09T20:39:47.528Z,35.67
2023-01-09T20:42:15.501Z,35.77
2023-01-09T20:44:43.413Z,36.50
2023-01-09T20:47:11.338Z,36.67
2023-01-09T20:49:40.610Z,36.67
2023-01-09T20:52:08.507Z,41.00
2023-01-09T20:54:36.561Z,39.77
2023-01-09T20:57:04.577Z,35.77
2023-01-09T20:59:32.468Z,34.73
2023-01-09T21:02:00.496Z,35.77
2023-01-09T21:04:29.577Z,35.83
2023-01-09T21:06:58.922Z,34.50
2023-01-09T21:09:29.081Z,33.33
2023-01-09T21:11:57.064Z,32.13
2023-01-09T21:14:24.976Z,30.63
2023-01-09T21:16:54.887Z,31.83
2023-01-09T21:19:23.573Z,32.37
2023-01-09T21:21:53.243Z,31.73
2023-01-09T21:24:23.125Z,33.20
2023-01-09T21:26:51.025Z,32.97
2023-01-09T21:29:19.028Z,33.37
2023-01-09T21:31:47.026Z,34.53
2023-01-09T21:34:17.407Z,36.20
2023-01-09T21:36:48.627Z,35.83
2023-01-09T21:39:17.103Z,35.03
2023-01-09T21:42:04.057Z,32.43
2023-01-09T21:44:49.720Z,33.30
2023-01-09T21:47:17.709Z,33.53
2023-01-09T21:49:46.040Z,33.03
2023-01-09T21:52:14.990Z,31.27
2023-01-09T21:54:43.669Z,32.10
2023-01-09T21:57:13.839Z,35.00
2023-01-09T21:59:42.192Z,33.63
2023-01-09T22:02:12.822Z,32.87
2023-01-09T22:04:42.872Z,34.23
2023-01-09T22:07:11.047Z,33.43
2023-01-09T22:09:39.039Z,32.97
2023-01-09T22:12:07.517Z,32.67
2023-01-09T22:14:38.821Z,33.20
2023-01-09T22:17:06.833Z,32.10
2023-01-09T22:19:34.805Z,32.53
2023-01-09T22:22:07.142Z,33.10
2023-01-09T22:24:35.972Z,31.50
2023-01-09T22:27:04.093Z,31.37
2023-01-09T22:29:32.239Z,31.57
2023-01-09T22:32:01.578Z,31.30
2023-01-09T22:34:29.789Z,31.70
2023-01-09T22:36:57.859Z,31.40
2023-01-09T22:39:26.076Z,30.20
2023-01-09T22:41:55.162Z,31.80
2023-01-09T22:44:23.171Z,31.13
2023-01-09T22:46:51.034Z,29.80
2023-01-09T22:49:20.418Z,31.63
2023-01-09T22:51:48.353Z,33.00
2023-01-09T22:54:16.429Z,30.23
2023-01-09T22:56:44.408Z,32.30
2023-01-09T22:59:12.361Z,30.57
2023-01-09T23:01:40.394Z,30.07
2023-01-09T23:04:11.887Z,30.13
2023-01-09T23:06:41.142Z,31.30
2023-01-09T23:09:09.099Z,30.00
2023-01-09T23:11:54.384Z,31.23
2023-01-09T23:14:23.067Z,31.60
2023-01-09T23:16:51.074Z,29.27
2023-01-09T23:19:19.374Z,30.63
2023-01-09T23:21:48.824Z,31.07
2023-01-09T23:24:18.567Z,30.60
2023-01-09T23:26:47.611Z,30.60
2023-01-09T23:29:15.896Z,31.10
2023-01-09T23:31:43.930Z,29.87
2023-01-09T23:34:15.944Z,31.47
2023-01-09T23:36:43.953Z,31.40
2023-01-09T23:39:13.385Z,31.07
2023-01-09T23:41:59.592Z,29.77
2023-01-09T23:44:27.811Z,30.10
2023-01-09T23:46:55.816Z,30.77
2023-01-09T23:49:23.884Z,32.27
2023-01-09T23:51:51.912Z,29.17
2023-01-09T23:54:21.956Z,31.17
2023-01-09T23:56:49.919Z,30.80
2023-01-09T23:59:18.086Z,30.50
